Ponce, PR

8:48 AM AST on October 30, 2014 (GMT -0400)
Luis Munoz Marin International | Change Station
CLOSE
Current Station
Airport
Location: San Juan,
Elevation: 7 ft
Nearby Weather Stations

Elev 7 ft 18.43 °N, 66.01 °W | Updated 52 minutes ago

Light Rain
Light Rain
82 °F
Feels Like 92 °F
N
0
Wind Variable Wind from North

Today
High -- | Low -- °F
--% Chance of Precip.
Yesterday
High -- | Low -- °F
Precip. -- in
6:24 AM 5:55 PM
Waxing Crescent, 43% visible
Pressure 29.84 in
Visibility 10.0 miles
Clouds Few 1800 ft
Scattered Clouds 2700 ft
Scattered Clouds 6000 ft
Heat Index 92 °F
Dew Point 79 °F
Humidity 90%
Rainfall 0.18 in
Snow Depth Not available.
UV 1 out of 12
Pollen Not available.
Air Quality Not available.
Flu Activity Not available.
METAR TJSJ 301156Z 00000KT 10SM -RA FEW018 SCT027 SCT060 28/26 A2984 RMK AO2 RAB56 SLP105 P0000 60013 70031 T02780261 10278 20261 53014

More Conditions Fewer Conditions

Pressure 29.84 in
Visibility 10.0 miles
Clouds Few 1800 ft
Scattered Clouds 2700 ft
Scattered Clouds 6000 ft
Heat Index 92 °F
Dew Point 79 °F
Humidity 90%
Rainfall 0.18 in
Snow Depth Not available.
UV 1 out of 12
Pollen Not available.
Air Quality Not available.
Flu Activity Not available.
METAR TJSJ 301156Z 00000KT 10SM -RA FEW018 SCT027 SCT060 28/26 A2984 RMK AO2 RAB56 SLP105 P0000 60013 70031 T02780261 10278 20261 53014

More Conditions Fewer Conditions

10-Day Weather Forecast

Almanac

Astronomy

Oct. 30, 2014 Rise Set
Actual Time
Civil Twilight
Nautical Twilight
Astronomical Twilight
Moon
Length of Visible Light
Length of Day
Tomorrow will be .
, % of the Moon is Illuminated

Today's Extremes

State Highs State Lows

Community

WunderPhotos

Upload Photos

1,766,353 photos uploaded!

WunderBlogs® & News

Nearby

Air Quality

  Air Quality AQ Index Pollutant
Not available.

Snow Depth

Station Depth Elevation

Earthquake Activity

City Distance Mag. Time & Date
Minimum magnitude displayed is 2.5.

Coastal Water Temperatures

Place Temperature

Nearby Weather Stations